Time;durP1;ratioP1;P1;durP2;ratioP2;P2;SDS_P1;SDS_P2;PMS_P1;PMS_P2;Temp;Humidity;BMP_temperature;BMP_pressure;BME280_temperature;BME280_humidity;BME280_pressure;Samples;Min_cycle;Max_cycle;Signal;HPM_P1;HPM_P2
2021/04/29 00:01:21;;;;;;;;;;;10.50;96.50;;;;;;5028848;28;20108;-73
2021/04/29 00:03:48;;;;;;;;;;;10.50;96.70;;;;;;5011924;28;19928;-72
2021/04/29 00:06:14;;;;;;;;;;;10.60;96.10;;;;;;5028037;28;20302;-73
2021/04/29 00:08:39;;;;;;;;;;;10.70;96.50;;;;;;5027122;28;19929;-73
2021/04/29 00:11:06;;;;;;;;;;;10.60;96.00;;;;;;5026854;28;19928;-73
2021/04/29 00:13:31;;;;;;;;;;;10.60;96.30;;;;;;5027673;28;20026;-73
2021/04/29 00:15:57;;;;;;;;;;;10.60;96.20;;;;;;5027488;28;20235;-72
2021/04/29 00:18:23;;;;;;;;;;;10.60;96.00;;;;;;5030458;28;19917;-73
2021/04/29 00:20:54;;;;;;;;;;;10.60;96.00;;;;;;5028364;28;21579;-72
2021/04/29 00:23:20;;;;;;;;;;;10.60;95.90;;;;;;5009964;28;20294;-73
2021/04/29 00:25:45;;;;;;;;;;;10.60;95.90;;;;;;5031682;28;19959;-73
2021/04/29 00:28:11;;;;;;;;;;;10.50;96.00;;;;;;5030737;28;20233;-73
2021/04/29 00:30:36;;;;;;;;;;;10.50;95.70;;;;;;5030765;28;19913;-73
2021/04/29 00:33:02;;;;;;;;;;;10.50;96.10;;;;;;5035204;28;19924;-73
2021/04/29 00:35:27;;;;;;;;;;;10.50;96.20;;;;;;5033549;28;19929;-72
2021/04/29 00:37:53;;;;;;;;;;;10.60;95.80;;;;;;5027369;28;20388;-72
2021/04/29 00:40:19;;;;;;;;;;;10.70;96.10;;;;;;5025767;28;19925;-72
2021/04/29 00:42:44;;;;;;;;;;;10.60;95.90;;;;;;5026295;28;19936;-73
2021/04/29 00:45:11;;;;;;;;;;;10.60;96.10;;;;;;5033663;28;19921;-72
2021/04/29 00:47:37;;;;;;;;;;;10.60;95.70;;;;;;5013907;28;19924;-72
2021/04/29 00:50:04;;;;;;;;;;;10.70;95.80;;;;;;5032351;28;20007;-73
2021/04/29 00:52:29;;;;;;;;;;;10.70;95.60;;;;;;5032799;28;19917;-73
2021/04/29 00:54:55;;;;;;;;;;;10.70;95.60;;;;;;5030843;28;20032;-73
2021/04/29 00:57:21;;;;;;;;;;;10.70;95.30;;;;;;5031620;28;20265;-73
2021/04/29 00:59:47;;;;;;;;;;;10.80;95.00;;;;;;5028145;28;19922;-74
2021/04/29 01:02:12;;;;;;;;;;;10.80;95.00;;;;;;5027248;28;19921;-73
2021/04/29 01:04:55;;;;;;;;;;;10.80;95.00;;;;;;5026928;28;19960;-73
2021/04/29 01:07:22;;;;;;;;;;;10.80;94.80;;;;;;5022515;28;19913;-73
2021/04/29 01:09:53;;;;;;;;;;;10.90;94.60;;;;;;5025763;28;20386;-73
2021/04/29 01:12:21;;;;;;;;;;;11.00;94.60;;;;;;5005232;28;19921;-73
2021/04/29 01:14:47;;;;;;;;;;;11.00;94.60;;;;;;5009216;28;19921;-74
2021/04/29 01:17:13;;;;;;;;;;;10.90;94.60;;;;;;5024113;28;19913;-73
2021/04/29 01:19:52;;;;;;;;;;;10.90;94.40;;;;;;5028114;28;20306;-73
2021/04/29 01:22:17;;;;;;;;;;;11.00;94.60;;;;;;5026509;28;20377;-73
2021/04/29 01:25:03;;;;;;;;;;;11.10;94.00;;;;;;5030655;28;20012;-73
2021/04/29 01:27:29;;;;;;;;;;;11.20;93.50;;;;;;5024579;28;19913;-74
2021/04/29 01:29:55;;;;;;;;;;;11.10;93.50;;;;;;5025107;28;19953;-74
2021/04/29 01:32:21;;;;;;;;;;;11.10;93.10;;;;;;5024884;28;19921;-74
2021/04/29 01:34:47;;;;;;;;;;;11.10;92.80;;;;;;5027018;28;19927;-74
2021/04/29 01:37:12;;;;;;;;;;;11.10;91.50;;;;;;5025891;28;20012;-74
2021/04/29 01:39:41;;;;;;;;;;;11.10;90.90;;;;;;5025623;28;19992;-73
2021/04/29 01:42:08;;;;;;;;;;;11.20;90.00;;;;;;5044420;28;20341;-74
2021/04/29 01:44:34;;;;;;;;;;;11.30;90.30;;;;;;5026222;28;19920;-74
2021/04/29 01:47:00;;;;;;;;;;;11.20;90.80;;;;;;5025193;28;19932;-74
2021/04/29 01:49:25;;;;;;;;;;;11.20;91.10;;;;;;5027749;28;20326;-75
2021/04/29 01:51:52;;;;;;;;;;;11.10;91.30;;;;;;5026248;28;20278;-73
2021/04/29 01:54:18;;;;;;;;;;;11.10;91.20;;;;;;5025372;28;19922;-73
2021/04/29 01:56:44;;;;;;;;;;;11.10;91.10;;;;;;5027137;28;19959;-74
2021/04/29 01:59:10;;;;;;;;;;;11.10;91.50;;;;;;5011467;28;20203;-74
2021/04/29 02:01:38;;;;;;;;;;;11.00;91.50;;;;;;5028316;28;19913;-72
2021/04/29 02:04:04;;;;;;;;;;;11.10;91.10;;;;;;5033420;28;20310;-75
2021/04/29 02:06:30;;;;;;;;;;;11.10;91.60;;;;;;5030066;28;19958;-74
2021/04/29 02:08:56;;;;;;;;;;;11.00;91.40;;;;;;5031625;28;20055;-73
2021/04/29 02:11:21;;;;;;;;;;;11.10;91.30;;;;;;5025875;28;19921;-73
2021/04/29 02:13:47;;;;;;;;;;;11.10;90.80;;;;;;5009064;28;20268;-74
2021/04/29 02:16:18;;;;;;;;;;;11.00;91.00;;;;;;5027208;28;19917;-73
2021/04/29 02:18:48;;;;;;;;;;;11.00;91.10;;;;;;5027883;28;20059;-73
2021/04/29 02:21:15;;;;;;;;;;;11.00;91.00;;;;;;5030191;28;19913;-75
2021/04/29 02:23:41;;;;;;;;;;;11.00;91.00;;;;;;5023078;28;19913;-73
2021/04/29 02:26:07;;;;;;;;;;;11.00;91.20;;;;;;5026591;28;19936;-74
2021/04/29 02:28:33;;;;;;;;;;;10.90;91.20;;;;;;5025678;28;20302;-73
2021/04/29 02:31:01;;;;;;;;;;;10.90;91.60;;;;;;5028315;28;20268;-73
2021/04/29 02:33:27;;;;;;;;;;;10.90;91.60;;;;;;5011479;28;19947;-75
2021/04/29 02:35:53;;;;;;;;;;;10.90;91.60;;;;;;5030043;28;20314;-73
2021/04/29 02:38:18;;;;;;;;;;;10.80;91.60;;;;;;5029315;28;19921;-73
2021/04/29 02:40:45;;;;;;;;;;;10.80;92.30;;;;;;5028175;28;19925;-73
2021/04/29 02:43:11;;;;;;;;;;;10.70;92.70;;;;;;5028478;28;19921;-72
2021/04/29 02:45:37;;;;;;;;;;;10.50;93.50;;;;;;5028706;28;19931;-74
2021/04/29 02:48:03;;;;;;;;;;;10.40;93.80;;;;;;5031628;28;20011;-74
2021/04/29 02:50:29;;;;;;;;;;;10.10;94.30;;;;;;5047624;28;19921;-73
2021/04/29 02:52:56;;;;;;;;;;;9.90;95.40;;;;;;5016097;28;19921;-73
2021/04/29 02:55:22;;;;;;;;;;;9.80;95.10;;;;;;5015680;28;20040;-72
2021/04/29 02:57:48;;;;;;;;;;;9.70;95.40;;;;;;5029071;28;19921;-73
2021/04/29 03:00:15;;;;;;;;;;;9.60;95.50;;;;;;5013315;28;19978;-74
2021/04/29 03:02:41;;;;;;;;;;;9.50;95.60;;;;;;5029191;28;19913;-73
2021/04/29 03:05:11;;;;;;;;;;;9.60;96.00;;;;;;5011502;28;19935;-73
2021/04/29 03:07:38;;;;;;;;;;;9.60;95.40;;;;;;5029115;28;19921;-74
2021/04/29 03:10:05;;;;;;;;;;;9.50;95.60;;;;;;5028897;28;19989;-73
2021/04/29 03:12:30;;;;;;;;;;;9.50;95.40;;;;;;5011602;28;19961;-73
2021/04/29 03:14:56;;;;;;;;;;;9.50;95.20;;;;;;5030080;28;19964;-74
2021/04/29 03:17:21;;;;;;;;;;;9.60;95.30;;;;;;5029995;28;19968;-73
2021/04/29 03:19:47;;;;;;;;;;;9.60;95.00;;;;;;5031130;28;20294;-73
2021/04/29 03:22:12;;;;;;;;;;;9.60;95.00;;;;;;5028421;28;19923;-74
2021/04/29 03:24:38;;;;;;;;;;;9.50;94.70;;;;;;5031334;28;19948;-73
2021/04/29 03:27:04;;;;;;;;;;;9.50;94.50;;;;;;5029177;28;19917;-73
2021/04/29 03:29:29;;;;;;;;;;;9.50;94.50;;;;;;5046881;28;20302;-76
2021/04/29 03:31:55;;;;;;;;;;;9.50;94.60;;;;;;5029089;28;19920;-74
2021/04/29 03:34:20;;;;;;;;;;;9.40;94.30;;;;;;5030585;28;19921;-73
2021/04/29 03:36:46;;;;;;;;;;;9.40;94.20;;;;;;5027423;28;19921;-73
2021/04/29 03:39:11;;;;;;;;;;;9.40;94.70;;;;;;5028871;28;19939;-74
2021/04/29 03:41:37;;;;;;;;;;;9.30;94.50;;;;;;5029572;28;20352;-73
2021/04/29 03:44:02;;;;;;;;;;;9.20;94.70;;;;;;5027607;28;21294;-76
2021/04/29 03:46:28;;;;;;;;;;;9.20;94.70;;;;;;5028714;28;19939;-75
2021/04/29 03:48:53;;;;;;;;;;;9.20;94.90;;;;;;5030363;28;20051;-74
2021/04/29 03:51:19;;;;;;;;;;;9.20;95.10;;;;;;5028383;28;20360;-73
2021/04/29 03:53:44;;;;;;;;;;;9.20;94.90;;;;;;5028272;28;19924;-74
2021/04/29 03:56:10;;;;;;;;;;;9.20;95.00;;;;;;5027956;28;19961;-74
2021/04/29 03:58:35;;;;;;;;;;;9.10;94.90;;;;;;5028972;28;19913;-74
2021/04/29 04:01:01;;;;;;;;;;;9.10;95.00;;;;;;5019727;28;19921;-74
2021/04/29 04:03:27;;;;;;;;;;;9.10;95.00;;;;;;5030133;28;19913;-74
2021/04/29 04:05:52;;;;;;;;;;;9.00;95.20;;;;;;5029495;28;19913;-73
2021/04/29 04:08:18;;;;;;;;;;;9.00;95.40;;;;;;5028098;28;20368;-73
2021/04/29 04:10:43;;;;;;;;;;;9.10;95.40;;;;;;5027740;28;19967;-73
2021/04/29 04:13:16;;;;;;;;;;;9.00;95.30;;;;;;5029358;28;19945;-73
2021/04/29 04:15:42;;;;;;;;;;;9.00;95.40;;;;;;5011893;28;20214;-72
2021/04/29 04:18:07;;;;;;;;;;;8.90;95.50;;;;;;5011976;28;20019;-74
2021/04/29 04:20:33;;;;;;;;;;;8.90;95.50;;;;;;5027855;28;19917;-73
2021/04/29 04:22:58;;;;;;;;;;;8.80;95.60;;;;;;5027321;28;19928;-73
2021/04/29 04:25:24;;;;;;;;;;;8.80;95.80;;;;;;5029373;28;19922;-73
2021/04/29 04:27:49;;;;;;;;;;;8.80;95.80;;;;;;5012346;28;19936;-73
2021/04/29 04:30:15;;;;;;;;;;;8.80;95.80;;;;;;5028198;28;19917;-72
2021/04/29 04:32:40;;;;;;;;;;;8.80;96.00;;;;;;5030771;28;19941;-72
2021/04/29 04:35:06;;;;;;;;;;;8.90;95.60;;;;;;5034036;28;19925;-73
2021/04/29 04:37:32;;;;;;;;;;;8.90;95.50;;;;;;5034806;28;20306;-73
2021/04/29 04:39:57;;;;;;;;;;;9.00;95.60;;;;;;5018625;28;20323;-73
2021/04/29 04:42:23;;;;;;;;;;;9.00;95.50;;;;;;5030521;28;20217;-73
2021/04/29 04:44:48;;;;;;;;;;;9.00;95.40;;;;;;5035444;28;20305;-73
2021/04/29 04:47:14;;;;;;;;;;;8.90;95.60;;;;;;5034892;28;19913;-73
2021/04/29 04:49:39;;;;;;;;;;;9.00;95.30;;;;;;5012954;28;19924;-73
2021/04/29 04:52:05;;;;;;;;;;;9.10;95.00;;;;;;5033846;28;19920;-73
2021/04/29 04:54:30;;;;;;;;;;;9.10;94.80;;;;;;5035816;28;19921;-74
2021/04/29 04:56:56;;;;;;;;;;;9.20;94.40;;;;;;5035297;28;19920;-73
2021/04/29 04:59:22;;;;;;;;;;;9.20;94.10;;;;;;5035552;28;19917;-74
2021/04/29 05:01:48;;;;;;;;;;;9.30;93.80;;;;;;5035928;28;20324;-72
2021/04/29 05:04:14;;;;;;;;;;;9.40;93.50;;;;;;5028994;28;19931;-74
2021/04/29 05:06:39;;;;;;;;;;;9.50;93.10;;;;;;5034442;28;19921;-73
2021/04/29 05:09:06;;;;;;;;;;;9.50;92.90;;;;;;5029965;28;19917;-73
2021/04/29 05:11:31;;;;;;;;;;;9.50;92.60;;;;;;5018037;28;19924;-72
2021/04/29 05:13:57;;;;;;;;;;;9.50;92.60;;;;;;5028717;28;20415;-74
2021/04/29 05:16:23;;;;;;;;;;;9.60;92.20;;;;;;5062429;23;19932;-74
2021/04/29 05:18:48;;;;;;;;;;;9.60;92.30;;;;;;5052819;28;19917;-74
2021/04/29 05:21:14;;;;;;;;;;;9.70;91.80;;;;;;5051302;28;19923;-73
2021/04/29 05:23:39;;;;;;;;;;;9.70;91.90;;;;;;5070702;28;19908;-74
2021/04/29 05:26:05;;;;;;;;;;;9.70;91.10;;;;;;5075560;28;19970;-74
2021/04/29 05:28:30;;;;;;;;;;;9.60;91.30;;;;;;5050593;28;19920;-73
2021/04/29 05:30:56;;;;;;;;;;;9.70;91.10;;;;;;5062733;28;19919;-73
2021/04/29 05:33:22;;;;;;;;;;;9.70;90.60;;;;;;5065987;28;19912;-74
2021/04/29 05:35:47;;;;;;;;;;;9.80;90.50;;;;;;5069235;28;19920;-74
2021/04/29 05:38:13;;;;;;;;;;;9.80;90.80;;;;;;5059059;28;19920;-73
2021/04/29 05:40:39;;;;;;;;;;;9.70;91.50;;;;;;5045950;28;19921;-74
2021/04/29 05:43:05;;;;;;;;;;;9.80;91.30;;;;;;5058586;28;19916;-73
2021/04/29 05:45:30;;;;;;;;;;;9.90;90.30;;;;;;5067303;28;19936;-74
2021/04/29 05:47:56;;;;;;;;;;;10.00;89.90;;;;;;5066872;28;19920;-73
2021/04/29 05:50:22;;;;;;;;;;;10.00;89.70;;;;;;5075367;28;20009;-74
2021/04/29 05:52:47;;;;;;;;;;;10.00;89.60;;;;;;5072650;28;19915;-75
2021/04/29 05:55:13;;;;;;;;;;;10.00;89.30;;;;;;5072007;28;19913;-74
2021/04/29 05:57:38;;;;;;;;;;;10.10;89.20;;;;;;5065551;28;19923;-74
2021/04/29 06:00:05;;;;;;;;;;;10.20;88.80;;;;;;5073824;28;19920;-74
2021/04/29 06:02:31;;;;;;;;;;;10.30;88.00;;;;;;5073633;28;19967;-73
2021/04/29 06:04:56;;;;;;;;;;;10.30;87.90;;;;;;5075494;28;19913;-74
2021/04/29 06:07:22;;;;;;;;;;;10.20;88.40;;;;;;5071318;28;19952;-74
2021/04/29 06:09:48;;;;;;;;;;;10.20;88.80;;;;;;5055729;28;19995;-74
2021/04/29 06:12:14;;;;;;;;;;;10.20;88.50;;;;;;5064417;28;19970;-73
2021/04/29 06:14:39;;;;;;;;;;;10.20;88.00;;;;;;5055791;28;19916;-73
2021/04/29 06:17:05;;;;;;;;;;;10.20;87.70;;;;;;5053256;28;19920;-74
2021/04/29 06:19:30;;;;;;;;;;;10.20;87.40;;;;;;5052558;28;19979;-73
2021/04/29 06:21:56;;;;;;;;;;;10.30;87.60;;;;;;5066544;28;20350;-74
2021/04/29 06:24:22;;;;;;;;;;;10.40;87.40;;;;;;5072384;28;19913;-74
2021/04/29 06:26:47;;;;;;;;;;;10.50;87.20;;;;;;5073734;28;19912;-73
2021/04/29 06:29:13;;;;;;;;;;;10.60;86.60;;;;;;5066933;28;20007;-74
2021/04/29 06:31:41;;;;;;;;;;;10.70;86.00;;;;;;5072148;28;20334;-74
2021/04/29 06:34:06;;;;;;;;;;;10.70;86.00;;;;;;5065252;28;19916;-74
2021/04/29 06:36:32;;;;;;;;;;;10.70;86.00;;;;;;5063794;28;19913;-74
2021/04/29 06:38:58;;;;;;;;;;;10.70;85.40;;;;;;5067657;28;19908;-74
2021/04/29 06:41:23;;;;;;;;;;;10.90;86.10;;;;;;5054062;28;19966;-74
2021/04/29 06:43:49;;;;;;;;;;;11.20;85.20;;;;;;5064323;28;20561;-74
2021/04/29 06:46:15;;;;;;;;;;;11.50;83.80;;;;;;5067349;28;19917;-73
2021/04/29 06:48:40;;;;;;;;;;;11.50;84.10;;;;;;5048906;28;19912;-73
2021/04/29 06:51:06;;;;;;;;;;;11.40;84.00;;;;;;5073816;28;20011;-74
2021/04/29 06:53:32;;;;;;;;;;;11.60;84.60;;;;;;5048775;28;20323;-74
2021/04/29 06:55:57;;;;;;;;;;;11.80;83.20;;;;;;5069220;28;19920;-74
2021/04/29 06:58:23;;;;;;;;;;;11.70;84.40;;;;;;5070367;28;19917;-75
2021/04/29 07:00:49;;;;;;;;;;;11.70;84.10;;;;;;5072578;28;19924;-74
2021/04/29 07:03:14;;;;;;;;;;;11.60;84.90;;;;;;5067926;28;19916;-75
2021/04/29 07:05:40;;;;;;;;;;;11.50;84.70;;;;;;5074683;28;20001;-75
2021/04/29 07:08:06;;;;;;;;;;;11.70;85.20;;;;;;5057823;28;19943;-75
2021/04/29 07:10:32;;;;;;;;;;;11.80;84.80;;;;;;5063220;28;19922;-74
2021/04/29 07:13:00;;;;;;;;;;;11.70;84.40;;;;;;5044465;28;19939;-75
2021/04/29 07:15:25;;;;;;;;;;;11.80;84.70;;;;;;5057852;28;20507;-75
2021/04/29 07:17:56;;;;;;;;;;;11.80;84.40;;;;;;5058160;28;19939;-74
2021/04/29 07:20:21;;;;;;;;;;;11.60;85.00;;;;;;5042618;28;20396;-73
2021/04/29 07:22:47;;;;;;;;;;;11.60;85.10;;;;;;5039556;28;20120;-74
2021/04/29 07:25:12;;;;;;;;;;;11.80;84.60;;;;;;5064806;28;19921;-73
2021/04/29 07:27:38;;;;;;;;;;;12.00;83.50;;;;;;5043154;28;19917;-73
2021/04/29 07:30:04;;;;;;;;;;;12.00;83.10;;;;;;5059122;28;19925;-75
2021/04/29 07:32:29;;;;;;;;;;;12.30;82.90;;;;;;5061669;28;19913;-75
2021/04/29 07:34:55;;;;;;;;;;;12.40;82.90;;;;;;5056545;28;19912;-74
2021/04/29 07:37:20;;;;;;;;;;;12.60;81.70;;;;;;5074764;28;20005;-73
2021/04/29 07:39:46;;;;;;;;;;;12.60;81.20;;;;;;5072367;28;20300;-74
2021/04/29 07:42:12;;;;;;;;;;;12.40;82.20;;;;;;5069909;28;19927;-73
2021/04/29 07:44:37;;;;;;;;;;;12.60;81.90;;;;;;5073613;28;19913;-75
2021/04/29 07:47:03;;;;;;;;;;;12.50;82.00;;;;;;5067496;28;19913;-74
2021/04/29 07:49:28;;;;;;;;;;;12.50;82.20;;;;;;5052086;28;20009;-73
2021/04/29 07:51:54;;;;;;;;;;;12.30;82.80;;;;;;5071914;28;19935;-74
2021/04/29 07:54:20;;;;;;;;;;;12.40;82.10;;;;;;5057919;28;19961;-73
2021/04/29 07:56:46;;;;;;;;;;;12.80;82.30;;;;;;5077145;28;20313;-71
2021/04/29 07:59:11;;;;;;;;;;;13.00;80.40;;;;;;5077457;28;19919;-74
2021/04/29 08:01:37;;;;;;;;;;;12.80;80.90;;;;;;5058665;28;19912;-72
2021/04/29 08:04:03;;;;;;;;;;;13.00;80.90;;;;;;5057681;28;19913;-72
2021/04/29 08:06:29;;;;;;;;;;;13.30;80.10;;;;;;5055381;28;20314;-73
2021/04/29 08:08:55;;;;;;;;;;;13.30;80.50;;;;;;5065519;28;20370;-74
2021/04/29 08:11:20;;;;;;;;;;;13.40;79.70;;;;;;5062811;28;19939;-74
2021/04/29 08:13:46;;;;;;;;;;;13.30;78.90;;;;;;5069107;28;19935;-74
2021/04/29 08:16:11;;;;;;;;;;;13.20;79.90;;;;;;5071443;28;19977;-73
2021/04/29 08:18:37;;;;;;;;;;;13.40;78.70;;;;;;5052146;28;19924;-73
2021/04/29 08:21:04;;;;;;;;;;;13.30;80.00;;;;;;5056763;28;20316;-72
2021/04/29 08:23:30;;;;;;;;;;;13.20;80.40;;;;;;5054588;28;19920;-73
2021/04/29 08:25:55;;;;;;;;;;;13.30;79.70;;;;;;5055228;28;19916;-73
2021/04/29 08:28:21;;;;;;;;;;;13.50;79.70;;;;;;5036875;28;19920;-73
2021/04/29 08:30:46;;;;;;;;;;;13.70;77.50;;;;;;5055474;28;20019;-73
2021/04/29 08:33:12;;;;;;;;;;;14.00;76.60;;;;;;5051318;28;19916;-73
2021/04/29 08:35:38;;;;;;;;;;;14.10;77.20;;;;;;5048563;28;20298;-73
2021/04/29 08:38:03;;;;;;;;;;;14.00;77.10;;;;;;5037423;28;19909;-73
2021/04/29 08:40:30;;;;;;;;;;;14.00;77.90;;;;;;5056156;28;19916;-73
2021/04/29 08:42:55;;;;;;;;;;;14.70;74.90;;;;;;5045260;28;19914;-73
2021/04/29 08:45:22;;;;;;;;;;;15.10;72.30;;;;;;5054211;28;19913;-73
2021/04/29 08:47:53;;;;;;;;;;;15.40;73.50;;;;;;5056431;28;20324;-73
2021/04/29 08:50:19;;;;;;;;;;;15.20;72.20;;;;;;5056864;28;19913;-73
2021/04/29 08:52:45;;;;;;;;;;;15.10;73.50;;;;;;5055125;28;20382;-73
2021/04/29 08:55:18;;;;;;;;;;;14.80;73.60;;;;;;5056134;28;19917;-73
2021/04/29 08:57:44;;;;;;;;;;;14.40;75.00;;;;;;5055386;28;19944;-73
2021/04/29 09:00:12;;;;;;;;;;;13.90;75.50;;;;;;5036040;28;19917;-73
2021/04/29 09:02:38;;;;;;;;;;;13.70;76.70;;;;;;5031560;28;19913;-73
2021/04/29 09:05:12;;;;;;;;;;;13.80;77.10;;;;;;5051510;28;20532;-73
2021/04/29 09:07:37;;;;;;;;;;;13.80;77.00;;;;;;5054335;28;19913;-73
2021/04/29 09:10:04;;;;;;;;;;;13.80;77.00;;;;;;5054686;28;19967;-72
2021/04/29 09:12:43;;;;;;;;;;;15.20;73.10;;;;;;5034804;28;19912;-72
2021/04/29 09:15:21;;;;;;;;;;;16.30;71.00;;;;;;5053703;28;20003;-72
2021/04/29 09:17:50;;;;;;;;;;;16.80;69.40;;;;;;5054572;28;19924;-72
2021/04/29 09:20:20;;;;;;;;;;;16.50;70.10;;;;;;5055794;28;19971;-72
2021/04/29 09:22:56;;;;;;;;;;;16.90;69.00;;;;;;5054400;28;19973;-72
2021/04/29 09:25:23;;;;;;;;;;;17.20;67.10;;;;;;5037684;28;19913;-72
2021/04/29 09:27:52;;;;;;;;;;;16.60;67.60;;;;;;5056060;28;19923;-72
2021/04/29 09:30:17;;;;;;;;;;;15.90;70.50;;;;;;5050959;28;19916;-72
2021/04/29 09:32:43;;;;;;;;;;;15.40;70.10;;;;;;5055475;28;20015;-72
2021/04/29 09:35:18;;;;;;;;;;;15.00;71.80;;;;;;5054985;28;20309;-72
2021/04/29 09:37:44;;;;;;;;;;;15.70;70.40;;;;;;5049327;28;19917;-73
2021/04/29 09:40:16;;;;;;;;;;;15.30;71.20;;;;;;5035777;28;19919;-73
2021/04/29 09:42:44;;;;;;;;;;;15.40;71.80;;;;;;5052018;28;19913;-74
2021/04/29 09:45:18;;;;;;;;;;;14.90;71.90;;;;;;5052667;28;19938;-73
2021/04/29 09:48:19;;;;;;;;;;;14.50;73.90;;;;;;5048039;28;19917;-73
2021/04/29 09:50:46;;;;;;;;;;;14.40;73.40;;;;;;5038059;28;20244;-73
2021/04/29 09:53:14;;;;;;;;;;;14.30;73.70;;;;;;5038691;28;19957;-73
2021/04/29 09:55:41;;;;;;;;;;;14.20;74.60;;;;;;5039385;28;20016;-74
2021/04/29 09:58:17;;;;;;;;;;;14.30;75.40;;;;;;5055332;28;19920;-73
2021/04/29 10:00:46;;;;;;;;;;;14.20;75.30;;;;;;5049748;28;20210;-73
2021/04/29 10:03:12;;;;;;;;;;;13.90;75.60;;;;;;5053801;28;19991;-73
2021/04/29 10:05:40;;;;;;;;;;;13.70;76.80;;;;;;5031031;28;19999;-73
2021/04/29 10:08:06;;;;;;;;;;;13.50;77.10;;;;;;5036377;28;20382;-73
2021/04/29 10:10:33;;;;;;;;;;;13.50;79.30;;;;;;5054225;28;19940;-73
2021/04/29 10:13:00;;;;;;;;;;;13.40;80.80;;;;;;5054791;28;20229;-73
2021/04/29 10:15:26;;;;;;;;;;;13.30;81.90;;;;;;5055091;28;19932;-74
2021/04/29 10:17:52;;;;;;;;;;;13.20;83.20;;;;;;5054888;28;19921;-73
2021/04/29 10:20:17;;;;;;;;;;;13.00;83.70;;;;;;5075130;28;20305;-73
2021/04/29 10:22:43;;;;;;;;;;;12.80;83.30;;;;;;5073997;28;19947;-73
2021/04/29 10:25:09;;;;;;;;;;;12.60;85.10;;;;;;5075092;28;20015;-73
2021/04/29 10:27:34;;;;;;;;;;;12.50;86.10;;;;;;5073132;28;20255;-73
2021/04/29 10:30:04;;;;;;;;;;;12.30;88.00;;;;;;5081766;28;19920;-73
2021/04/29 10:32:33;;;;;;;;;;;12.20;89.50;;;;;;5071814;28;19919;-73
2021/04/29 10:34:59;;;;;;;;;;;12.20;90.70;;;;;;5073167;28;19916;-73
2021/04/29 10:37:27;;;;;;;;;;;12.30;90.30;;;;;;5072483;28;19962;-72
2021/04/29 10:39:56;;;;;;;;;;;12.50;91.30;;;;;;5068235;28;19913;-74
2021/04/29 10:42:22;;;;;;;;;;;12.80;89.50;;;;;;5065781;28;19921;-73
2021/04/29 10:44:49;;;;;;;;;;;13.20;87.80;;;;;;5055162;28;19913;-73
2021/04/29 10:47:31;;;;;;;;;;;13.80;85.40;;;;;;5062667;28;19916;-73
2021/04/29 10:50:07;;;;;;;;;;;14.30;82.30;;;;;;5072269;28;19963;-73
2021/04/29 10:52:45;;;;;;;;;;;14.80;81.10;;;;;;5065150;28;19920;-73
2021/04/29 10:55:20;;;;;;;;;;;15.20;80.80;;;;;;5056639;28;19919;-73
2021/04/29 10:57:46;;;;;;;;;;;14.90;78.10;;;;;;5076016;28;19958;-73
2021/04/29 11:00:12;;;;;;;;;;;14.90;79.40;;;;;;5074860;28;19916;-73
2021/04/29 11:02:38;;;;;;;;;;;14.50;78.00;;;;;;5077462;28;19913;-73
2021/04/29 11:05:04;;;;;;;;;;;14.10;77.90;;;;;;5076596;28;19912;-74
2021/04/29 11:07:30;;;;;;;;;;;14.00;79.00;;;;;;5074016;28;19912;-74
2021/04/29 11:09:57;;;;;;;;;;;14.20;79.20;;;;;;5073699;28;19967;-74
2021/04/29 11:12:22;;;;;;;;;;;14.60;79.00;;;;;;5072202;28;19924;-74
2021/04/29 11:14:48;;;;;;;;;;;15.00;78.60;;;;;;5063744;28;19912;-74
2021/04/29 11:17:20;;;;;;;;;;;15.20;74.20;;;;;;5064662;28;19929;-73
2021/04/29 11:19:56;;;;;;;;;;;14.80;74.20;;;;;;5053553;28;19935;-74
2021/04/29 11:22:24;;;;;;;;;;;14.70;73.90;;;;;;5034625;28;19923;-74
2021/04/29 11:24:51;;;;;;;;;;;14.50;74.20;;;;;;5058258;28;19963;-73
2021/04/29 11:27:19;;;;;;;;;;;14.60;74.00;;;;;;5055681;28;19912;-74
2021/04/29 11:29:45;;;;;;;;;;;14.80;74.10;;;;;;5057451;28;19952;-73
2021/04/29 11:32:10;;;;;;;;;;;15.20;70.90;;;;;;5056840;28;19990;-73
2021/04/29 11:34:47;;;;;;;;;;;15.00;70.20;;;;;;5053119;28;19913;-73
2021/04/29 11:37:14;;;;;;;;;;;15.00;69.80;;;;;;5031551;28;19913;-73
2021/04/29 11:39:40;;;;;;;;;;;15.10;68.40;;;;;;5038832;28;19935;-73
2021/04/29 11:42:09;;;;;;;;;;;15.60;68.20;;;;;;5039470;28;19932;-73
2021/04/29 11:44:35;;;;;;;;;;;16.00;67.20;;;;;;5036164;28;19913;-73
2021/04/29 11:47:10;;;;;;;;;;;16.10;65.00;;;;;;5056657;28;20329;-73
2021/04/29 11:49:37;;;;;;;;;;;16.10;65.50;;;;;;5056490;28;20348;-73
2021/04/29 11:52:03;;;;;;;;;;;16.20;65.90;;;;;;5036498;28;19912;-73
2021/04/29 11:54:28;;;;;;;;;;;16.40;65.40;;;;;;5029234;28;19970;-73
2021/04/29 11:56:59;;;;;;;;;;;16.80;65.20;;;;;;5063640;28;19913;-73
2021/04/29 11:59:28;;;;;;;;;;;16.90;63.90;;;;;;5055285;28;20287;-73
2021/04/29 12:01:54;;;;;;;;;;;16.40;64.90;;;;;;5056504;28;19955;-73
2021/04/29 12:04:24;;;;;;;;;;;16.50;65.60;;;;;;5056472;28;19916;-73
2021/04/29 12:06:49;;;;;;;;;;;16.30;66.90;;;;;;5054742;28;19913;-73
2021/04/29 12:09:15;;;;;;;;;;;16.70;65.70;;;;;;5057097;28;20295;-73
2021/04/29 12:11:41;;;;;;;;;;;16.00;65.90;;;;;;5039144;28;20026;-73
2021/04/29 12:14:06;;;;;;;;;;;16.40;66.30;;;;;;5056659;28;19917;-73
2021/04/29 12:16:33;;;;;;;;;;;16.70;65.40;;;;;;5062892;28;19971;-73
2021/04/29 12:18:59;;;;;;;;;;;16.90;65.00;;;;;;5071500;28;19920;-73
2021/04/29 12:21:27;;;;;;;;;;;17.00;65.40;;;;;;5049506;28;19935;-73
2021/04/29 12:24:06;;;;;;;;;;;17.00;64.30;;;;;;5074883;28;19913;-73
2021/04/29 12:26:33;;;;;;;;;;;17.30;64.00;;;;;;5074388;28;19982;-73
2021/04/29 12:29:04;;;;;;;;;;;18.00;62.00;;;;;;5058153;28;19917;-73
2021/04/29 12:31:30;;;;;;;;;;;18.00;63.20;;;;;;5055905;28;19913;-73
2021/04/29 12:34:02;;;;;;;;;;;17.50;63.80;;;;;;5057443;28;20314;-74
2021/04/29 12:36:28;;;;;;;;;;;16.70;64.10;;;;;;5065649;28;19966;-73
2021/04/29 12:38:54;;;;;;;;;;;16.10;66.20;;;;;;5071700;28;19916;-73
2021/04/29 12:41:23;;;;;;;;;;;15.60;67.40;;;;;;5054758;28;19916;-74
2021/04/29 12:43:55;;;;;;;;;;;15.40;68.00;;;;;;5060311;28;19916;-74
2021/04/29 12:46:41;;;;;;;;;;;15.60;68.40;;;;;;5073917;28;19965;-74
2021/04/29 12:49:14;;;;;;;;;;;16.10;67.40;;;;;;5057624;28;19924;-74
2021/04/29 12:51:39;;;;;;;;;;;16.10;67.00;;;;;;5059970;28;20343;-74
2021/04/29 12:54:11;;;;;;;;;;;16.00;66.50;;;;;;5058180;28;19909;-74
2021/04/29 12:56:38;;;;;;;;;;;15.80;66.40;;;;;;5064637;28;19912;-74
2021/04/29 12:59:10;;;;;;;;;;;15.50;67.00;;;;;;5064838;28;20015;-74
2021/04/29 13:01:36;;;;;;;;;;;15.40;67.20;;;;;;5056083;28;19936;-74
2021/04/29 13:04:01;;;;;;;;;;;15.20;67.60;;;;;;5045469;28;20305;-74
2021/04/29 13:06:27;;;;;;;;;;;15.10;67.90;;;;;;5065250;28;19913;-74
2021/04/29 13:08:52;;;;;;;;;;;15.00;68.60;;;;;;5059389;28;20357;-73
2021/04/29 13:11:30;;;;;;;;;;;14.60;70.30;;;;;;5063840;28;20324;-73
2021/04/29 13:14:10;;;;;;;;;;;14.20;72.00;;;;;;5075771;28;19913;-73
2021/04/29 13:16:37;;;;;;;;;;;14.30;71.70;;;;;;5068187;28;19921;-73
2021/04/29 13:19:03;;;;;;;;;;;14.10;71.50;;;;;;5055481;28;19966;-73
2021/04/29 13:21:28;;;;;;;;;;;14.20;71.30;;;;;;5055075;28;19999;-72
2021/04/29 13:23:54;;;;;;;;;;;14.40;71.10;;;;;;5055189;28;20329;-72
2021/04/29 13:26:20;;;;;;;;;;;14.70;69.90;;;;;;5060091;28;19912;-72
2021/04/29 13:28:46;;;;;;;;;;;15.00;69.40;;;;;;5054832;28;19916;-73
2021/04/29 13:31:12;;;;;;;;;;;14.90;69.10;;;;;;5055488;28;20423;-72
2021/04/29 13:33:37;;;;;;;;;;;15.10;69.90;;;;;;5067691;28;19944;-73
2021/04/29 13:36:03;;;;;;;;;;;15.20;69.20;;;;;;5043910;28;19924;-73
2021/04/29 13:38:29;;;;;;;;;;;15.30;68.80;;;;;;5054506;28;19913;-72
2021/04/29 13:40:54;;;;;;;;;;;16.20;67.60;;;;;;5054133;28;20344;-72
2021/04/29 13:43:20;;;;;;;;;;;16.80;67.10;;;;;;5055591;28;19920;-73
2021/04/29 13:45:45;;;;;;;;;;;17.10;65.40;;;;;;5054857;28;19941;-73
2021/04/29 13:48:11;;;;;;;;;;;17.20;65.00;;;;;;5037863;28;20233;-72
2021/04/29 13:50:37;;;;;;;;;;;17.40;65.80;;;;;;5055608;28;19917;-72
2021/04/29 13:53:02;;;;;;;;;;;17.70;65.40;;;;;;5053942;28;19921;-72
2021/04/29 13:55:28;;;;;;;;;;;16.80;66.60;;;;;;5054820;28;19913;-73
2021/04/29 13:57:53;;;;;;;;;;;16.70;67.40;;;;;;5054855;28;19917;-72
2021/04/29 14:00:19;;;;;;;;;;;16.30;69.00;;;;;;5055248;28;19958;-72
2021/04/29 14:02:45;;;;;;;;;;;15.90;71.30;;;;;;5055387;28;19917;-71
2021/04/29 14:05:10;;;;;;;;;;;15.40;72.10;;;;;;5054963;28;19912;-72
2021/04/29 14:07:36;;;;;;;;;;;14.90;73.90;;;;;;5053860;28;19966;-71
2021/04/29 14:10:01;;;;;;;;;;;14.60;74.60;;;;;;5054899;28;20229;-72
2021/04/29 14:12:27;;;;;;;;;;;14.40;75.70;;;;;;5054321;28;19913;-72
2021/04/29 14:14:52;;;;;;;;;;;14.50;75.40;;;;;;5057193;28;19967;-72
2021/04/29 14:17:18;;;;;;;;;;;14.60;75.00;;;;;;5054581;28;19932;-73